Rio Fortuna, Brazil
Current Conditions -  °F | °C
As of 3:00 PM on Friday 24 Oct 2014 (Local Time) from SBCM Reporting Station
Scattered Clouds Scattered Clouds  
Wind Chill: 84°   Ceiling: Unl
Heat Index: 87°   Visibility: 6mi
Dew Point: 68°   Wind: 8mph
Humidity: 58%   Direction: 210°SSW
Pressure: 29.91"   Gusts: NA
Location:  28.14°S, 49.1°W
Report Text: SBCM 241700Z 21007KT 9999 SCT025 29/20 Q1013
Loading
Personal Weather Stations






























Interactive Weather Map
Tropical Storm Tracking
New forecast layout! Learn more

10-Day Weather Forecast

Advertisements
Track Severe Weather on mobile